createdAt,value
2018-06-11T00:02:15.127Z,32.07
2018-06-11T00:04:45.444Z,27.80
2018-06-11T00:07:13.658Z,27.57
2018-06-11T00:09:41.910Z,30.83
2018-06-11T00:12:10.162Z,49.53
2018-06-11T00:14:38.378Z,54.53
2018-06-11T00:17:06.651Z,42.50
2018-06-11T00:19:34.961Z,21.27
2018-06-11T00:22:03.189Z,24.53
2018-06-11T00:24:31.439Z,22.13
2018-06-11T00:26:59.700Z,21.07
2018-06-11T00:29:27.970Z,18.60
2018-06-11T00:31:56.197Z,22.07
2018-06-11T00:34:24.480Z,24.13
2018-06-11T00:36:52.693Z,25.93
2018-06-11T00:39:20.917Z,30.97
2018-06-11T00:41:49.171Z,32.13
2018-06-11T00:44:17.430Z,27.87
2018-06-11T00:46:45.666Z,24.47
2018-06-11T00:49:13.952Z,23.83
2018-06-11T00:51:42.192Z,22.10
2018-06-11T00:54:10.456Z,27.93
2018-06-11T00:56:38.727Z,24.33
2018-06-11T00:59:07.003Z,22.80
2018-06-11T01:01:35.234Z,25.43
2018-06-11T01:04:03.514Z,24.53
2018-06-11T01:06:31.859Z,26.20
2018-06-11T01:09:00.097Z,22.67
2018-06-11T01:11:28.344Z,20.10
2018-06-11T01:13:56.586Z,18.93
2018-06-11T01:16:24.844Z,18.83
2018-06-11T01:18:53.280Z,18.30
2018-06-11T01:21:21.565Z,17.90
2018-06-11T01:23:49.878Z,18.80
2018-06-11T01:26:18.091Z,19.87
2018-06-11T01:28:46.349Z,20.47
2018-06-11T01:31:14.594Z,19.57
2018-06-11T01:33:42.833Z,21.00
2018-06-11T01:36:11.123Z,20.07
2018-06-11T01:38:39.353Z,20.37
2018-06-11T01:41:07.595Z,20.57
2018-06-11T01:43:35.864Z,24.63
2018-06-11T01:46:04.121Z,25.63
2018-06-11T01:48:32.479Z,28.87
2018-06-11T01:51:00.690Z,18.63
2018-06-11T01:53:28.953Z,19.50
2018-06-11T01:55:57.240Z,19.03
2018-06-11T01:58:25.519Z,21.73
2018-06-11T02:00:53.782Z,21.77
2018-06-11T02:03:22.037Z,20.97
2018-06-11T02:05:50.285Z,19.20
2018-06-11T02:08:18.607Z,20.63
2018-06-11T02:10:46.883Z,18.77
2018-06-11T02:13:15.140Z,19.47
2018-06-11T02:15:43.375Z,19.60
2018-06-11T02:18:11.597Z,20.40
2018-06-11T02:20:39.932Z,23.70
2018-06-11T02:23:08.176Z,19.23
2018-06-11T02:25:36.493Z,20.23
2018-06-11T02:28:04.770Z,22.13
2018-06-11T02:30:33.058Z,19.23
2018-06-11T02:33:01.334Z,20.70
2018-06-11T02:35:29.625Z,20.20
2018-06-11T02:37:57.929Z,20.17
2018-06-11T02:40:26.237Z,20.43
2018-06-11T02:42:54.537Z,20.20
2018-06-11T02:45:22.843Z,21.67
2018-06-11T02:47:51.132Z,22.00
2018-06-11T02:50:19.458Z,24.73
2018-06-11T02:52:48.365Z,26.37
2018-06-11T02:55:17.333Z,23.23
2018-06-11T02:57:45.609Z,20.60
2018-06-11T03:00:13.867Z,20.50
2018-06-11T03:02:42.099Z,21.87
2018-06-11T03:05:10.466Z,21.80
2018-06-11T03:07:38.734Z,21.70
2018-06-11T03:10:07.069Z,20.93
2018-06-11T03:12:35.329Z,21.30
2018-06-11T03:15:03.619Z,21.17
2018-06-11T03:17:31.907Z,21.37
2018-06-11T03:20:00.272Z,21.33
2018-06-11T03:22:28.569Z,21.80
2018-06-11T03:24:56.844Z,20.80
2018-06-11T03:27:25.194Z,21.03
2018-06-11T03:29:53.472Z,19.67
2018-06-11T03:32:21.762Z,21.53
2018-06-11T03:34:50.073Z,20.97
2018-06-11T03:37:18.367Z,20.00
2018-06-11T03:39:46.682Z,23.83
2018-06-11T03:42:14.945Z,24.30
2018-06-11T03:44:43.252Z,23.83
2018-06-11T03:47:11.510Z,22.27
2018-06-11T03:49:39.785Z,21.37
2018-06-11T03:52:08.076Z,24.67
2018-06-11T03:54:36.446Z,19.70
2018-06-11T03:57:04.737Z,20.13
2018-06-11T03:59:33.087Z,20.63
2018-06-11T04:02:01.377Z,21.70
2018-06-11T04:04:29.680Z,20.87
2018-06-11T04:06:58.015Z,20.60
2018-06-11T04:09:26.317Z,19.67
2018-06-11T04:11:54.620Z,18.30
2018-06-11T04:14:22.992Z,21.37
2018-06-11T04:16:51.526Z,39.70
2018-06-11T04:19:19.797Z,61.73
2018-06-11T04:21:48.088Z,68.83
2018-06-11T04:24:16.457Z,64.80
2018-06-11T04:26:44.796Z,46.27
2018-06-11T04:29:13.083Z,54.87
2018-06-11T04:31:41.324Z,50.47
2018-06-11T04:34:09.614Z,35.90
2018-06-11T04:36:37.846Z,30.43
2018-06-11T04:39:06.564Z,29.53
2018-06-11T04:41:34.903Z,30.67
2018-06-11T04:44:03.267Z,40.27
2018-06-11T04:46:31.611Z,49.23
2018-06-11T04:48:59.943Z,58.00
2018-06-11T04:51:28.212Z,48.83
2018-06-11T04:53:56.539Z,20.60
2018-06-11T04:56:24.853Z,17.80
2018-06-11T04:58:53.208Z,17.90
2018-06-11T05:01:21.523Z,14.50
2018-06-11T05:03:49.864Z,14.63
2018-06-11T05:06:18.174Z,15.30
2018-06-11T05:08:46.481Z,14.30
2018-06-11T05:11:14.815Z,13.33
2018-06-11T05:13:43.132Z,13.77
2018-06-11T05:16:11.452Z,14.70
2018-06-11T05:18:39.809Z,16.83
2018-06-11T05:21:08.081Z,13.33
2018-06-11T05:23:36.412Z,14.00
2018-06-11T05:26:04.716Z,16.17
2018-06-11T05:28:33.003Z,17.53
2018-06-11T05:31:01.241Z,16.80
2018-06-11T05:33:29.509Z,14.27
2018-06-11T05:35:57.779Z,14.23
2018-06-11T05:38:26.093Z,18.77
2018-06-11T05:40:54.356Z,16.63
2018-06-11T05:43:22.577Z,16.00
2018-06-11T05:45:50.924Z,17.50
2018-06-11T05:48:19.170Z,20.47
2018-06-11T05:50:47.446Z,22.43
2018-06-11T05:53:15.759Z,27.10
2018-06-11T05:55:44.049Z,25.97
2018-06-11T05:58:12.312Z,35.77
2018-06-11T06:00:40.636Z,36.20
2018-06-11T06:03:08.920Z,38.83
2018-06-11T06:05:37.247Z,33.37
2018-06-11T06:08:05.550Z,26.47
2018-06-11T06:10:33.816Z,23.10
2018-06-11T06:13:02.200Z,23.27
2018-06-11T06:15:30.470Z,27.53
2018-06-11T06:17:58.718Z,27.57
2018-06-11T06:20:26.944Z,32.07
2018-06-11T06:22:55.251Z,29.47
2018-06-11T06:25:23.507Z,18.97
2018-06-11T06:27:51.777Z,21.80
2018-06-11T06:30:20.021Z,20.63
2018-06-11T06:32:48.308Z,22.60
2018-06-11T06:35:16.583Z,24.57
2018-06-11T06:37:44.833Z,24.97
2018-06-11T06:40:13.128Z,21.50
2018-06-11T06:42:41.397Z,20.87
2018-06-11T06:45:09.695Z,18.90
2018-06-11T06:47:38.514Z,17.57
2018-06-11T06:50:06.737Z,16.07
2018-06-11T06:52:34.990Z,15.53
2018-06-11T06:55:03.382Z,16.50
2018-06-11T06:57:31.743Z,16.37
2018-06-11T07:00:00.016Z,18.70
2018-06-11T07:02:28.315Z,20.47
2018-06-11T07:04:56.655Z,17.83
2018-06-11T07:07:24.910Z,17.67
2018-06-11T07:09:53.155Z,18.30
2018-06-11T07:12:21.483Z,18.30
2018-06-11T07:14:49.764Z,16.20
2018-06-11T07:20:03.576Z,14.00
2018-06-11T07:22:31.921Z,15.60
2018-06-11T07:25:00.213Z,15.07
2018-06-11T07:27:28.566Z,15.33
2018-06-11T07:29:56.925Z,14.43
2018-06-11T07:32:25.193Z,15.50
2018-06-11T07:34:53.741Z,14.33
2018-06-11T07:37:27.049Z,15.63
2018-06-11T07:39:55.347Z,15.60
2018-06-11T07:42:23.592Z,15.73
2018-06-11T07:44:51.969Z,14.93
2018-06-11T07:47:20.270Z,15.87
2018-06-11T07:49:48.617Z,14.53
2018-06-11T07:52:16.922Z,15.33
2018-06-11T07:54:45.253Z,14.50
2018-06-11T07:57:13.572Z,16.50
2018-06-11T07:59:41.848Z,15.60
2018-06-11T08:02:10.254Z,14.87
2018-06-11T08:04:38.609Z,15.47
2018-06-11T08:07:06.880Z,14.67
2018-06-11T08:09:35.290Z,14.63
2018-06-11T08:12:03.604Z,14.77
2018-06-11T08:14:31.912Z,14.20
2018-06-11T08:17:00.253Z,14.77
2018-06-11T08:19:28.526Z,13.50
2018-06-11T08:21:56.865Z,13.33
2018-06-11T08:24:25.120Z,14.07
2018-06-11T08:26:53.406Z,13.90
2018-06-11T08:29:21.713Z,13.90
2018-06-11T08:31:50.012Z,13.47
2018-06-11T08:34:18.316Z,12.50
2018-06-11T08:36:46.645Z,12.33
2018-06-11T08:39:14.911Z,13.10
2018-06-11T08:41:43.175Z,12.30
2018-06-11T08:44:11.563Z,13.57
2018-06-11T08:46:40.141Z,13.43
2018-06-11T08:49:08.437Z,12.90
2018-06-11T08:51:36.736Z,11.80
2018-06-11T08:54:05.176Z,12.43
2018-06-11T08:56:33.448Z,11.80
2018-06-11T08:59:01.693Z,12.50
2018-06-11T09:01:29.968Z,13.70
2018-06-11T09:03:58.253Z,13.30
2018-06-11T09:06:26.504Z,13.57
2018-06-11T09:08:55.340Z,13.60
2018-06-11T09:11:23.585Z,13.23
2018-06-11T09:13:51.832Z,11.23
2018-06-11T09:16:20.169Z,11.57
2018-06-11T09:18:48.471Z,13.17
2018-06-11T09:21:16.777Z,11.23
2018-06-11T09:23:45.018Z,10.83
2018-06-11T09:26:13.333Z,12.13
2018-06-11T09:28:41.672Z,12.83
2018-06-11T09:31:09.937Z,12.83
2018-06-11T09:33:38.171Z,13.37
2018-06-11T09:36:06.458Z,12.10
2018-06-11T09:38:34.771Z,12.20
2018-06-11T09:41:03.083Z,11.50
2018-06-11T09:43:31.401Z,11.93
2018-06-11T09:45:59.635Z,12.40
2018-06-11T09:48:27.929Z,12.00
2018-06-11T09:50:56.206Z,12.50
2018-06-11T09:53:25.094Z,13.40
2018-06-11T09:55:53.343Z,13.93
2018-06-11T09:58:21.664Z,14.03
2018-06-11T10:00:49.987Z,12.90
2018-06-11T10:03:18.256Z,13.53
2018-06-11T10:05:46.531Z,13.23
2018-06-11T10:08:14.813Z,12.63
2018-06-11T10:10:44.227Z,11.70
2018-06-11T10:13:12.449Z,11.53
2018-06-11T10:15:40.743Z,12.60
2018-06-11T10:18:09.011Z,11.60
2018-06-11T10:20:37.329Z,11.70
2018-06-11T10:23:05.622Z,10.80
2018-06-11T10:25:33.919Z,9.50
2018-06-11T10:28:02.179Z,8.63
2018-06-11T10:30:30.435Z,8.30
2018-06-11T10:32:58.753Z,9.00
2018-06-11T10:35:27.024Z,8.73
2018-06-11T10:37:55.328Z,7.60
2018-06-11T10:40:23.634Z,7.40
2018-06-11T10:42:51.877Z,7.27
2018-06-11T10:45:20.157Z,7.70
2018-06-11T10:47:48.407Z,8.67
2018-06-11T10:50:16.684Z,8.07
2018-06-11T10:52:44.998Z,8.33
2018-06-11T10:55:13.252Z,7.77
2018-06-11T10:57:41.492Z,8.00
2018-06-11T11:00:09.875Z,7.97
2018-06-11T11:02:38.174Z,7.80
2018-06-11T11:05:06.503Z,8.50
2018-06-11T11:07:34.845Z,8.00
2018-06-11T11:10:03.158Z,8.10
2018-06-11T11:12:31.559Z,7.97
2018-06-11T11:14:59.930Z,7.80
2018-06-11T11:17:28.206Z,7.60
2018-06-11T11:19:56.617Z,8.00
2018-06-11T11:22:25.053Z,8.57
2018-06-11T11:24:53.335Z,8.50
2018-06-11T11:27:21.650Z,8.20
2018-06-11T11:29:49.892Z,8.70
2018-06-11T11:32:18.181Z,7.30
2018-06-11T11:34:46.453Z,7.90
2018-06-11T11:37:14.715Z,8.07
2018-06-11T11:39:43.243Z,8.40
2018-06-11T11:42:11.519Z,8.73
2018-06-11T11:47:26.538Z,8.23
2018-06-11T11:49:54.788Z,9.30
2018-06-11T11:52:23.031Z,8.80
2018-06-11T11:54:51.360Z,10.37
2018-06-11T11:57:19.707Z,8.70
2018-06-11T11:59:48.008Z,9.50
2018-06-11T12:02:16.742Z,8.83
2018-06-11T12:04:44.975Z,8.23
2018-06-11T12:07:13.257Z,8.30
2018-06-11T12:09:41.568Z,9.30
2018-06-11T12:12:09.896Z,8.70
2018-06-11T12:14:38.274Z,8.80
2018-06-11T12:17:06.581Z,8.50
2018-06-11T12:19:34.879Z,10.07
2018-06-11T12:22:03.194Z,8.83
2018-06-11T12:24:31.581Z,8.03
2018-06-11T12:26:59.866Z,7.87
2018-06-11T12:29:28.203Z,8.07
2018-06-11T12:31:56.457Z,8.17
2018-06-11T12:34:24.683Z,7.30
2018-06-11T12:36:52.923Z,7.93
2018-06-11T12:39:21.188Z,7.80
2018-06-11T12:41:49.453Z,7.10
2018-06-11T12:44:17.697Z,7.37
2018-06-11T12:46:45.971Z,6.60
2018-06-11T12:49:14.279Z,6.77
2018-06-11T12:51:42.573Z,6.90
2018-06-11T12:54:10.853Z,8.00
2018-06-11T12:56:39.275Z,6.27
2018-06-11T12:59:07.534Z,6.57
2018-06-11T13:01:36.042Z,6.80
2018-06-11T13:04:04.304Z,6.70
2018-06-11T13:06:32.580Z,7.53
2018-06-11T13:09:00.877Z,7.73
2018-06-11T13:11:29.184Z,6.83
2018-06-11T13:13:57.494Z,7.33
2018-06-11T13:16:25.755Z,7.17
2018-06-11T13:18:54.080Z,7.50
2018-06-11T13:21:22.351Z,7.03
2018-06-11T13:23:50.592Z,7.87
2018-06-11T13:26:18.826Z,7.00
2018-06-11T13:28:47.138Z,7.47
2018-06-11T13:31:15.393Z,7.03
2018-06-11T13:33:43.641Z,7.60
2018-06-11T13:36:11.919Z,7.30
2018-06-11T13:38:40.137Z,7.40
2018-06-11T13:41:08.373Z,7.57
2018-06-11T13:57:26.297Z,6.30
2018-06-11T13:59:54.598Z,5.83
2018-06-11T14:02:23.081Z,6.90
2018-06-11T14:04:51.412Z,5.70
2018-06-11T14:07:19.658Z,5.33
2018-06-11T14:09:47.901Z,6.10
2018-06-11T14:12:16.220Z,6.03
2018-06-11T14:14:44.490Z,6.43
2018-06-11T14:17:12.740Z,6.30
2018-06-11T14:19:41.037Z,5.70
2018-06-11T14:22:09.293Z,7.10
2018-06-11T14:24:37.551Z,5.97
2018-06-11T14:27:05.897Z,6.60
2018-06-11T14:29:34.263Z,6.30
2018-06-11T14:32:02.605Z,6.70
2018-06-11T14:34:30.891Z,6.60
2018-06-11T14:36:59.208Z,6.90
2018-06-11T14:39:27.478Z,6.63
2018-06-11T14:41:55.745Z,7.00
2018-06-11T14:44:24.115Z,7.17
2018-06-11T14:46:52.377Z,7.10
2018-06-11T14:49:20.670Z,7.27
2018-06-11T14:51:48.992Z,7.83
2018-06-11T14:54:17.266Z,9.00
2018-06-11T14:56:45.587Z,8.80
2018-06-11T14:59:13.856Z,10.00
2018-06-11T15:01:42.110Z,10.10
2018-06-11T15:04:10.476Z,10.73
2018-06-11T15:06:38.827Z,13.47
2018-06-11T15:09:07.274Z,14.67
2018-06-11T15:11:35.573Z,17.43
2018-06-11T15:14:03.885Z,20.07
2018-06-11T15:16:32.144Z,20.00
2018-06-11T15:19:00.672Z,26.37
2018-06-11T15:21:29.858Z,25.67
2018-06-11T15:23:58.133Z,26.77
2018-06-11T15:26:26.407Z,23.70
2018-06-11T15:28:54.717Z,20.60
2018-06-11T15:31:23.007Z,19.30
2018-06-11T15:33:51.267Z,14.77
2018-06-11T15:36:19.541Z,13.93
2018-06-11T15:38:47.830Z,14.63
2018-06-11T15:41:16.077Z,16.70
2018-06-11T15:43:44.353Z,16.10
2018-06-11T15:46:12.688Z,16.93
2018-06-11T15:48:41.026Z,20.50
2018-06-11T15:51:09.350Z,16.03
2018-06-11T15:53:37.771Z,18.30
2018-06-11T15:56:06.033Z,21.00
2018-06-11T15:58:34.281Z,104.37
2018-06-11T16:01:02.649Z,33.83
2018-06-11T16:03:30.992Z,46.73
2018-06-11T16:05:59.292Z,23.83
2018-06-11T16:08:27.648Z,36.73
2018-06-11T16:10:55.943Z,28.87
2018-06-11T16:13:24.256Z,30.90
2018-06-11T16:15:52.519Z,59.43
2018-06-11T16:18:20.983Z,37.83
2018-06-11T16:20:49.283Z,89.77
2018-06-11T16:23:17.691Z,41.00
2018-06-11T16:25:45.973Z,43.07
2018-06-11T16:28:14.385Z,56.27
2018-06-11T16:30:42.761Z,30.40
2018-06-11T16:33:11.084Z,14.90
2018-06-11T16:35:39.569Z,17.50
2018-06-11T16:38:07.888Z,18.50
2018-06-11T16:40:36.174Z,26.90
2018-06-11T16:43:04.643Z,77.47
2018-06-11T16:45:32.877Z,16.60
2018-06-11T16:48:01.133Z,23.27
2018-06-11T16:50:29.460Z,21.23
2018-06-11T16:52:57.860Z,40.80
2018-06-11T16:55:26.194Z,50.80
2018-06-11T16:57:54.570Z,12.50
2018-06-11T17:00:22.893Z,11.20
2018-06-11T17:02:51.417Z,11.03
2018-06-11T17:05:19.910Z,9.93
2018-06-11T17:07:48.397Z,13.33
2018-06-11T17:10:16.705Z,11.77
2018-06-11T17:12:45.161Z,9.57
2018-06-11T17:15:13.573Z,11.73
2018-06-11T17:17:42.018Z,11.60
2018-06-11T17:20:10.673Z,10.07
2018-06-11T17:22:39.051Z,15.67
2018-06-11T17:25:08.126Z,35.90
2018-06-11T17:27:36.493Z,26.43
2018-06-11T17:30:05.745Z,33.10
2018-06-11T17:32:37.452Z,51.87
2018-06-11T17:35:06.348Z,44.33
2018-06-11T17:37:35.779Z,55.57
2018-06-11T17:40:05.020Z,127.17
2018-06-11T17:42:33.511Z,61.37
2018-06-11T17:45:01.918Z,47.70
2018-06-11T17:47:30.267Z,36.57
2018-06-11T17:49:58.618Z,22.03
2018-06-11T17:52:27.246Z,26.63
2018-06-11T17:54:55.611Z,29.23
2018-06-11T17:57:24.396Z,58.77
2018-06-11T17:59:52.689Z,50.47
2018-06-11T18:02:21.149Z,51.07
2018-06-11T18:04:49.620Z,40.33
2018-06-11T18:07:18.069Z,21.07
2018-06-11T18:09:46.523Z,58.50
2018-06-11T18:12:14.858Z,207.43
2018-06-11T18:14:43.119Z,171.67
2018-06-11T18:17:11.588Z,62.20
2018-06-11T18:19:40.275Z,57.97
2018-06-11T18:22:09.438Z,36.23
2018-06-11T18:24:37.933Z,16.50
2018-06-11T18:27:06.778Z,22.73
2018-06-11T18:29:35.473Z,18.83
2018-06-11T18:32:04.166Z,17.97
2018-06-11T18:34:32.923Z,16.27
2018-06-11T18:37:01.282Z,12.67
2018-06-11T18:39:29.617Z,14.37
2018-06-11T18:41:57.952Z,16.63
2018-06-11T18:44:26.273Z,18.30
2018-06-11T18:46:54.572Z,16.90
2018-06-11T18:49:23.087Z,18.23
2018-06-11T18:51:51.667Z,18.03
2018-06-11T18:54:19.953Z,19.60
2018-06-11T18:56:48.362Z,19.43
2018-06-11T18:59:16.761Z,17.90
2018-06-11T19:01:45.163Z,19.13
2018-06-11T19:04:14.300Z,15.67
2018-06-11T19:06:43.037Z,17.53
2018-06-11T19:09:11.401Z,19.47
2018-06-11T19:11:39.744Z,20.10
2018-06-11T19:14:08.039Z,21.03
2018-06-11T19:16:36.359Z,21.43
2018-06-11T19:19:04.971Z,19.67
2018-06-11T19:21:33.241Z,20.17
2018-06-11T19:24:01.618Z,20.07
2018-06-11T19:26:30.208Z,20.27
2018-06-11T19:28:58.934Z,16.27
2018-06-11T19:31:27.385Z,18.30
2018-06-11T19:33:55.872Z,17.27
2018-06-11T19:36:24.307Z,18.77
2018-06-11T19:38:52.714Z,18.83
2018-06-11T19:41:21.091Z,19.00
2018-06-11T19:43:49.485Z,14.73
2018-06-11T19:46:17.869Z,14.57
2018-06-11T19:48:46.411Z,15.80
2018-06-11T19:51:15.135Z,16.40
2018-06-11T19:53:45.272Z,16.60
2018-06-11T19:56:13.721Z,16.53
2018-06-11T19:58:42.200Z,16.90
2018-06-11T20:01:10.479Z,16.23
2018-06-11T20:03:39.030Z,17.67
2018-06-11T20:06:07.354Z,16.23
2018-06-11T20:08:35.959Z,16.20
2018-06-11T20:11:04.288Z,15.17
2018-06-11T20:13:32.647Z,15.43
2018-06-11T20:16:00.894Z,16.57
2018-06-11T20:18:29.175Z,15.37
2018-06-11T20:20:57.481Z,17.30
2018-06-11T20:23:25.764Z,17.63
2018-06-11T20:25:54.065Z,15.90
2018-06-11T20:28:22.406Z,17.23
2018-06-11T20:30:50.694Z,17.10
2018-06-11T20:33:19.215Z,17.97
2018-06-11T20:35:47.537Z,20.10
2018-06-11T20:38:15.860Z,17.97
2018-06-11T20:40:44.138Z,17.60
2018-06-11T20:43:12.389Z,17.87
2018-06-11T20:45:40.724Z,19.03
2018-06-11T20:48:09.813Z,17.80
2018-06-11T20:50:38.153Z,19.30
2018-06-11T20:53:06.455Z,19.00
2018-06-11T20:55:34.791Z,18.73
2018-06-11T20:58:03.293Z,18.43
2018-06-11T21:00:31.681Z,16.90
2018-06-11T21:02:59.969Z,17.90
2018-06-11T21:05:28.270Z,19.43
2018-06-11T21:07:56.554Z,19.50
2018-06-11T21:10:25.341Z,19.47
2018-06-11T21:12:53.653Z,19.80
2018-06-11T21:15:22.351Z,22.77
2018-06-11T21:17:50.684Z,23.90
2018-06-11T21:20:18.969Z,22.00
2018-06-11T21:22:47.263Z,24.37
2018-06-11T21:25:15.598Z,22.30
2018-06-11T21:27:43.889Z,21.50
2018-06-11T21:30:12.226Z,24.67
2018-06-11T21:32:40.614Z,23.90
2018-06-11T21:35:08.958Z,23.97
2018-06-11T21:37:37.293Z,22.77
2018-06-11T21:40:05.578Z,22.40
2018-06-11T21:42:33.897Z,24.67
2018-06-11T21:45:02.197Z,23.30
2018-06-11T21:47:30.561Z,27.30
2018-06-11T21:49:59.090Z,31.97
2018-06-11T21:52:27.449Z,35.57
2018-06-11T21:54:55.868Z,34.80
2018-06-11T21:57:24.450Z,31.23
2018-06-11T21:59:52.731Z,30.07
2018-06-11T22:02:21.351Z,34.27
2018-06-11T22:04:49.673Z,36.53
2018-06-11T22:07:18.253Z,34.97
2018-06-11T22:09:46.652Z,33.40
2018-06-11T22:12:15.124Z,31.93
2018-06-11T22:14:43.445Z,34.13
2018-06-11T22:17:11.784Z,34.17
2018-06-11T22:19:40.547Z,29.23
2018-06-11T22:22:08.908Z,29.20
2018-06-11T22:24:37.221Z,31.73
2018-06-11T22:27:05.796Z,29.90
2018-06-11T22:29:34.492Z,28.97
2018-06-11T22:32:02.838Z,31.50
2018-06-11T22:34:31.211Z,31.73
2018-06-11T22:36:59.635Z,31.43
2018-06-11T22:39:27.966Z,30.80
2018-06-11T22:41:56.321Z,32.00
2018-06-11T22:44:24.687Z,30.23
2018-06-11T22:46:53.018Z,30.70
2018-06-11T22:49:21.649Z,28.57
2018-06-11T22:51:50.177Z,29.30
2018-06-11T22:54:18.523Z,27.70
2018-06-11T22:56:46.915Z,29.40
2018-06-11T22:59:15.332Z,37.23
2018-06-11T23:01:43.676Z,36.10
2018-06-11T23:04:12.061Z,33.10
2018-06-11T23:06:40.459Z,32.50
2018-06-11T23:09:09.153Z,29.07
2018-06-11T23:11:37.557Z,29.97
2018-06-11T23:14:05.961Z,36.53
2018-06-11T23:16:34.451Z,35.00
2018-06-11T23:19:02.877Z,32.70
2018-06-11T23:21:31.260Z,31.93
2018-06-11T23:23:59.779Z,31.30
2018-06-11T23:26:28.388Z,27.90
2018-06-11T23:28:56.794Z,37.60
2018-06-11T23:31:25.142Z,32.90
2018-06-11T23:33:53.605Z,28.27
2018-06-11T23:36:22.260Z,29.17
2018-06-11T23:38:50.950Z,29.83
2018-06-11T23:41:19.416Z,30.20
2018-06-11T23:43:48.007Z,33.40
2018-06-11T23:46:16.436Z,32.20
2018-06-11T23:48:45.398Z,34.30
2018-06-11T23:51:14.004Z,39.90
2018-06-11T23:53:42.380Z,41.57
2018-06-11T23:56:10.793Z,39.73
2018-06-11T23:58:39.369Z,36.47
